Anzali, Iran

6:24 PM IRDT on September 18, 2014 (GMT +0430)
Rasht | Change Station
CLOSE
Current Station
Airport
Location: Rasht,
Elevation: -30 ft
Nearby Weather Stations

Elev -30 ft 37.33 °N, 49.61 °E | Updated 24 minutes ago

Light Rain
Light Rain
70 °F
Feels Like 70 °F
N
7
Wind Variable Wind from WNW

Today
High -- | Low -- °F
--% Chance of Precip.
Yesterday
High -- | Low -- °F
Precip. -- in
6:56 AM 7:15 PM
Waning Crescent, 27% visible
Pressure 30.04 in
Visibility 1.6 miles
Clouds Mostly Cloudy 900 ft
Few 1000 ft
Overcast 7000 ft
Dew Point 70 °F
Humidity 100%
Rainfall 0.00 in
Snow Depth Not available.
UV 0 out of 12
Pollen Not available.
Air Quality Not available.
Flu Activity Not available.
METAR OIGG 181330Z 29006KT 2500 -RA BKN009 FEW010CB OVC070 21/21 Q1017

More Conditions Fewer Conditions

Pressure 30.04 in
Visibility 1.6 miles
Clouds Mostly Cloudy 900 ft
Few 1000 ft
Overcast 7000 ft
Dew Point 70 °F
Humidity 100%
Rainfall 0.00 in
Snow Depth Not available.
UV 0 out of 12
Pollen Not available.
Air Quality Not available.
Flu Activity Not available.
METAR OIGG 181330Z 29006KT 2500 -RA BKN009 FEW010CB OVC070 21/21 Q1017

More Conditions Fewer Conditions

10-Day Weather Forecast

Almanac

Astronomy

Sep. 18, 2014 Rise Set
Actual Time 6:56 AM IRDT 7:15 PM IRDT
Civil Twilight 6:30 AM IRDT 7:41 PM IRDT
Nautical Twilight 5:59 AM IRDT 8:12 PM IRDT
Astronomical Twilight 5:28 AM IRDT 8:43 PM IRDT
Moon 1:32 AM IRDT 3:46 PM IRDT
Length of Visible Light 13h 11m
Length of Day
12h 19m
Tomorrow will be 2m 22s shorter.
Waning Crescent, 27% of the Moon is Illuminated
Today
Waning Crescent
Sep 24
New
Oct 1
First Quarter
Oct 8
Full
Oct 15
Last Quarter

Yesterday's Extremes

Country Highs Country Lows

Community

WunderPhotos

Upload Photos

1,754,347 photos uploaded!

Nearby

Snow Depth

Not available.

Earthquake Activity

City Distance Mag. Time & Date
No recent earthquake activity has been reported nearby.
Minimum magnitude displayed is 2.5.

Coastal Water Temperatures

Place Temperature
No Stations Reporting

Nearby Weather Stations